createdAt,value
2018-05-19T00:01:01.574Z,93.50
2018-05-19T00:03:29.029Z,93.50
2018-05-19T00:05:57.226Z,94.10
2018-05-19T00:08:24.748Z,94.10
2018-05-19T00:10:52.211Z,94.00
2018-05-19T00:13:19.758Z,94.30
2018-05-19T00:15:47.310Z,94.40
2018-05-19T00:18:14.779Z,94.40
2018-05-19T00:20:42.232Z,94.50
2018-05-19T00:23:12.140Z,94.60
2018-05-19T00:25:39.614Z,94.80
2018-05-19T00:28:07.147Z,95.00
2018-05-19T00:30:34.638Z,95.30
2018-05-19T00:33:02.100Z,95.10
2018-05-19T00:35:29.558Z,95.40
2018-05-19T00:37:57.006Z,95.10
2018-05-19T00:40:24.487Z,95.40
2018-05-19T00:42:51.930Z,95.60
2018-05-19T00:45:19.392Z,95.80
2018-05-19T00:47:46.940Z,96.00
2018-05-19T00:50:14.435Z,96.00
2018-05-19T00:52:41.886Z,96.20
2018-05-19T00:55:09.331Z,96.30
2018-05-19T00:57:36.799Z,96.20
2018-05-19T01:00:04.270Z,96.50
2018-05-19T01:02:31.714Z,96.60
2018-05-19T01:04:59.154Z,96.50
2018-05-19T01:07:26.663Z,96.60
2018-05-19T01:09:54.127Z,97.30
2018-05-19T01:12:21.656Z,97.40
2018-05-19T01:14:49.091Z,97.50
2018-05-19T01:17:17.337Z,97.70
2018-05-19T01:19:44.770Z,97.70
2018-05-19T01:22:12.243Z,97.80
2018-05-19T01:24:39.705Z,98.10
2018-05-19T01:27:07.144Z,97.90
2018-05-19T01:29:34.627Z,98.00
2018-05-19T01:32:02.067Z,98.20
2018-05-19T01:34:29.518Z,98.40
2018-05-19T01:36:56.952Z,98.60
2018-05-19T01:39:25.192Z,98.50
2018-05-19T01:41:52.655Z,98.70
2018-05-19T01:44:20.131Z,98.60
2018-05-19T01:46:47.575Z,98.90
2018-05-19T01:49:15.027Z,98.80
2018-05-19T01:51:42.469Z,98.60
2018-05-19T01:54:09.918Z,98.70
2018-05-19T01:56:37.362Z,98.80
2018-05-19T01:59:05.572Z,98.90
2018-05-19T02:01:33.058Z,98.90
2018-05-19T02:04:00.501Z,98.90
2018-05-19T02:06:27.966Z,98.90
2018-05-19T02:08:55.444Z,99.00
2018-05-19T02:11:22.876Z,99.20
2018-05-19T02:13:50.379Z,98.90
2018-05-19T02:16:17.859Z,99.40
2018-05-19T02:18:45.399Z,99.40
2018-05-19T02:21:12.851Z,99.30
2018-05-19T02:23:40.315Z,99.80
2018-05-19T02:26:07.784Z,99.40
2018-05-19T02:28:35.231Z,99.60
2018-05-19T02:31:02.706Z,99.40
2018-05-19T02:33:30.162Z,99.70
2018-05-19T02:35:57.622Z,99.70
2018-05-19T02:38:25.091Z,99.90
2018-05-19T02:40:52.551Z,99.90
2018-05-19T02:43:20.011Z,99.60
2018-05-19T02:45:47.459Z,99.60
2018-05-19T02:48:14.915Z,99.90
2018-05-19T02:50:42.399Z,99.90
2018-05-19T02:53:09.855Z,99.90
2018-05-19T02:55:37.290Z,99.90
2018-05-19T02:58:04.727Z,99.90
2018-05-19T03:00:32.945Z,99.70
2018-05-19T03:03:00.387Z,99.70
2018-05-19T03:05:27.846Z,99.70
2018-05-19T03:07:55.319Z,99.90
2018-05-19T03:10:22.811Z,99.90
2018-05-19T03:12:50.209Z,99.90
2018-05-19T03:15:18.437Z,99.90
2018-05-19T03:17:45.872Z,99.90
2018-05-19T03:20:13.369Z,99.90
2018-05-19T03:22:40.815Z,99.90
2018-05-19T03:25:08.292Z,99.90
2018-05-19T03:27:35.731Z,99.90
2018-05-19T03:30:03.175Z,99.90
2018-05-19T03:32:30.811Z,99.90
2018-05-19T03:34:59.062Z,99.90
2018-05-19T03:37:26.491Z,99.90
2018-05-19T03:39:53.937Z,99.90
2018-05-19T03:42:21.362Z,99.90
2018-05-19T03:44:48.823Z,99.90
2018-05-19T03:47:16.254Z,99.90
2018-05-19T03:49:43.704Z,99.90
2018-05-19T03:52:11.141Z,99.90
2018-05-19T03:54:38.642Z,99.90
2018-05-19T04:00:19.830Z,99.90
2018-05-19T04:02:47.287Z,99.90
2018-05-19T04:05:14.755Z,99.90
2018-05-19T04:07:42.198Z,99.90
2018-05-19T04:10:09.671Z,99.90
2018-05-19T04:12:37.104Z,99.90
2018-05-19T04:15:04.596Z,99.90
2018-05-19T04:17:32.047Z,99.90
2018-05-19T04:19:59.486Z,99.90
2018-05-19T04:22:26.976Z,99.90
2018-05-19T04:24:54.771Z,99.90
2018-05-19T04:27:22.962Z,99.90
2018-05-19T04:29:51.170Z,99.90
2018-05-19T04:32:18.627Z,99.90
2018-05-19T04:34:46.075Z,99.90
2018-05-19T04:37:14.270Z,99.90
2018-05-19T04:39:41.710Z,99.90
2018-05-19T04:42:09.920Z,99.90
2018-05-19T04:44:37.404Z,99.90
2018-05-19T04:47:04.858Z,99.90
2018-05-19T04:49:32.319Z,99.90
2018-05-19T04:51:59.757Z,99.90
2018-05-19T04:54:27.319Z,99.90
2018-05-19T04:56:54.775Z,99.90
2018-05-19T04:59:22.995Z,99.90
2018-05-19T05:01:50.442Z,99.90
2018-05-19T05:04:17.885Z,99.90
2018-05-19T05:06:45.334Z,99.90
2018-05-19T05:09:12.803Z,99.90
2018-05-19T05:11:40.263Z,99.90
2018-05-19T05:14:07.699Z,99.90
2018-05-19T05:16:35.930Z,99.90
2018-05-19T05:19:03.372Z,99.90
2018-05-19T05:21:30.815Z,99.90
2018-05-19T05:23:58.261Z,99.90
2018-05-19T05:26:26.491Z,99.90
2018-05-19T05:28:53.962Z,99.90
2018-05-19T05:31:21.423Z,99.90
2018-05-19T05:33:48.879Z,99.90
2018-05-19T05:36:16.339Z,99.90
2018-05-19T05:38:43.782Z,99.90
2018-05-19T05:41:11.274Z,99.90
2018-05-19T05:43:39.547Z,99.90
2018-05-19T05:46:07.002Z,99.90
2018-05-19T05:48:34.445Z,99.90
2018-05-19T05:51:01.930Z,99.90
2018-05-19T05:53:29.374Z,99.90
2018-05-19T05:55:56.831Z,99.90
2018-05-19T05:58:24.282Z,99.90
2018-05-19T06:00:51.775Z,99.90
2018-05-19T06:03:19.257Z,99.90
2018-05-19T06:05:46.708Z,99.90
2018-05-19T06:08:14.145Z,99.90
2018-05-19T06:10:41.606Z,99.90
2018-05-19T06:13:09.085Z,99.90
2018-05-19T06:15:36.536Z,99.90
2018-05-19T06:18:04.005Z,99.90
2018-05-19T06:20:31.483Z,99.90
2018-05-19T06:22:58.926Z,99.90
2018-05-19T06:25:26.379Z,99.90
2018-05-19T06:27:53.853Z,99.90
2018-05-19T06:30:21.314Z,99.90
2018-05-19T06:32:48.768Z,99.90
2018-05-19T06:35:16.226Z,99.90
2018-05-19T06:37:43.700Z,99.80
2018-05-19T06:40:11.156Z,99.90
2018-05-19T06:42:38.619Z,99.90
2018-05-19T06:45:06.103Z,99.00
2018-05-19T06:47:33.565Z,98.20
2018-05-19T06:50:01.010Z,99.30
2018-05-19T06:52:28.463Z,98.60
2018-05-19T06:54:55.911Z,97.90
2018-05-19T06:57:23.353Z,97.30
2018-05-19T06:59:50.791Z,98.00
2018-05-19T07:02:19.007Z,95.60
2018-05-19T07:04:46.470Z,95.60
2018-05-19T07:07:14.022Z,95.40
2018-05-19T07:09:41.506Z,95.60
2018-05-19T07:12:09.047Z,95.50
2018-05-19T07:14:36.501Z,95.00
2018-05-19T07:17:03.943Z,95.20
2018-05-19T07:19:32.179Z,94.60
2018-05-19T07:21:59.647Z,94.60
2018-05-19T07:24:27.086Z,94.90
2018-05-19T07:26:54.531Z,94.20
2018-05-19T07:29:22.023Z,94.30
2018-05-19T07:31:49.474Z,94.30
2018-05-19T07:34:16.910Z,93.80
2018-05-19T07:36:44.379Z,93.80
2018-05-19T07:39:11.882Z,94.50
2018-05-19T07:41:39.331Z,93.50
2018-05-19T07:44:06.894Z,93.80
2018-05-19T07:46:34.350Z,93.20
2018-05-19T07:49:01.815Z,92.90
2018-05-19T07:51:29.282Z,93.30
2018-05-19T07:53:56.742Z,92.40
2018-05-19T07:56:24.195Z,92.80
2018-05-19T07:58:51.642Z,93.10
2018-05-19T08:01:19.123Z,92.10
2018-05-19T08:03:46.656Z,92.30
2018-05-19T08:06:14.138Z,91.80
2018-05-19T08:08:41.606Z,91.90
2018-05-19T08:11:09.177Z,92.60
2018-05-19T08:13:36.646Z,93.60
2018-05-19T08:16:04.194Z,93.20
2018-05-19T08:18:31.731Z,93.20
2018-05-19T08:20:59.158Z,93.20
2018-05-19T08:23:27.384Z,91.90
2018-05-19T08:25:54.822Z,91.90
2018-05-19T08:28:22.431Z,92.00
2018-05-19T08:30:50.599Z,92.20
2018-05-19T08:33:18.071Z,92.20
2018-05-19T08:35:45.527Z,91.50
2018-05-19T08:38:12.978Z,91.40
2018-05-19T08:40:40.434Z,91.80
2018-05-19T08:43:08.284Z,91.60
2018-05-19T08:45:35.715Z,91.90
2018-05-19T08:48:03.973Z,91.50
2018-05-19T08:50:31.504Z,91.50
2018-05-19T08:52:58.874Z,91.60
2018-05-19T08:55:26.414Z,90.40
2018-05-19T08:57:53.906Z,90.90
2018-05-19T09:00:21.371Z,92.00
2018-05-19T09:02:48.927Z,90.90
2018-05-19T09:05:16.486Z,89.30
2018-05-19T09:07:43.938Z,90.20
2018-05-19T09:10:11.395Z,87.20
2018-05-19T09:12:38.877Z,86.20
2018-05-19T09:15:06.307Z,87.80
2018-05-19T09:17:33.812Z,88.90
2018-05-19T09:20:01.276Z,87.80
2018-05-19T09:22:28.834Z,88.30
2018-05-19T09:24:56.291Z,85.10
2018-05-19T09:27:23.753Z,87.70
2018-05-19T09:29:51.298Z,84.20
2018-05-19T09:32:18.651Z,85.70
2018-05-19T09:34:46.111Z,82.60
2018-05-19T09:37:13.566Z,84.00
2018-05-19T09:39:41.063Z,83.80
2018-05-19T09:42:08.509Z,84.90
2018-05-19T09:44:35.982Z,81.80
2018-05-19T09:47:03.619Z,79.50
2018-05-19T09:49:31.054Z,82.50
2018-05-19T09:51:59.277Z,79.80
2018-05-19T09:54:26.752Z,79.80
2018-05-19T09:56:54.215Z,79.60
2018-05-19T09:59:21.763Z,79.70
2018-05-19T10:01:49.271Z,77.30
2018-05-19T10:04:16.819Z,78.60
2018-05-19T10:06:44.290Z,77.40
2018-05-19T10:09:11.743Z,76.50
2018-05-19T10:11:39.207Z,75.30
2018-05-19T10:14:06.652Z,76.00
2018-05-19T10:16:34.207Z,77.10
2018-05-19T10:19:01.669Z,78.00
2018-05-19T10:21:29.138Z,78.90
2018-05-19T10:23:56.591Z,78.20
2018-05-19T10:26:24.058Z,77.70
2018-05-19T10:28:51.586Z,80.20
2018-05-19T10:31:19.016Z,78.10
2018-05-19T10:33:47.239Z,79.60
2018-05-19T10:36:14.742Z,79.60
2018-05-19T10:38:42.195Z,76.80
2018-05-19T10:41:10.376Z,76.50
2018-05-19T10:43:37.826Z,74.80
2018-05-19T10:46:05.273Z,73.80
2018-05-19T10:48:32.743Z,74.80
2018-05-19T10:51:00.206Z,78.70
2018-05-19T10:53:27.764Z,78.80
2018-05-19T10:55:55.228Z,78.90
2018-05-19T10:58:22.682Z,79.30
2018-05-19T11:00:50.193Z,78.60
2018-05-19T11:03:18.415Z,76.70
2018-05-19T11:05:45.855Z,76.60
2018-05-19T11:08:13.370Z,74.40
2018-05-19T11:10:40.926Z,74.80
2018-05-19T11:13:08.388Z,74.00
2018-05-19T11:15:35.836Z,78.30
2018-05-19T11:18:03.308Z,80.10
2018-05-19T11:20:30.765Z,77.10
2018-05-19T11:22:58.332Z,75.00
2018-05-19T11:25:25.865Z,73.70
2018-05-19T11:27:53.236Z,73.50
2018-05-19T11:30:20.710Z,73.40
2018-05-19T11:32:48.255Z,72.70
2018-05-19T11:35:15.727Z,72.80
2018-05-19T11:37:43.187Z,74.20
2018-05-19T11:40:10.644Z,73.80
2018-05-19T11:42:38.086Z,77.00
2018-05-19T11:45:05.574Z,74.50
2018-05-19T11:47:33.121Z,72.00
2018-05-19T11:50:00.569Z,71.50
2018-05-19T11:52:28.014Z,72.20
2018-05-19T11:54:56.242Z,75.00
2018-05-19T11:57:23.711Z,74.90
2018-05-19T11:59:51.322Z,74.20
2018-05-19T12:02:19.559Z,74.00
2018-05-19T12:04:47.022Z,74.00
2018-05-19T12:07:14.578Z,75.70
2018-05-19T12:09:42.039Z,76.40
2018-05-19T12:12:09.610Z,72.30
2018-05-19T12:14:37.791Z,73.00
2018-05-19T12:17:05.259Z,72.90
2018-05-19T12:19:32.708Z,72.30
2018-05-19T12:22:00.151Z,72.50
2018-05-19T12:24:27.599Z,70.90
2018-05-19T12:26:55.095Z,71.70
2018-05-19T12:29:22.641Z,71.90
2018-05-19T12:31:50.111Z,70.10
2018-05-19T12:34:17.551Z,71.20
2018-05-19T12:36:45.011Z,71.10
2018-05-19T12:39:12.505Z,71.50
2018-05-19T12:41:39.942Z,72.00
2018-05-19T12:44:07.414Z,72.10
2018-05-19T12:46:34.984Z,69.40
2018-05-19T12:49:02.446Z,68.90
2018-05-19T12:51:29.904Z,67.00
2018-05-19T12:53:57.369Z,65.30
2018-05-19T12:56:25.624Z,65.10
2018-05-19T12:58:53.087Z,65.10
2018-05-19T13:01:20.571Z,64.80
2018-05-19T13:03:48.022Z,66.80
2018-05-19T13:06:15.476Z,68.00
2018-05-19T13:08:42.924Z,63.30
2018-05-19T13:11:10.378Z,62.00
2018-05-19T13:13:37.888Z,62.00
2018-05-19T13:16:05.347Z,61.70
2018-05-19T13:18:32.807Z,58.60
2018-05-19T13:21:00.679Z,60.40
2018-05-19T13:23:28.142Z,57.10
2018-05-19T13:25:55.632Z,56.70
2018-05-19T13:28:23.071Z,58.10
2018-05-19T13:30:50.523Z,57.90
2018-05-19T13:33:17.979Z,59.10
2018-05-19T13:35:45.438Z,59.20
2018-05-19T13:38:12.919Z,61.30
2018-05-19T13:40:40.339Z,61.70
2018-05-19T13:43:07.819Z,63.50
2018-05-19T13:45:35.278Z,61.40
2018-05-19T13:48:02.724Z,59.40
2018-05-19T13:50:30.178Z,59.20
2018-05-19T13:52:57.666Z,59.00
2018-05-19T13:55:25.122Z,57.70
2018-05-19T13:57:52.604Z,58.80
2018-05-19T14:00:20.023Z,56.50
2018-05-19T14:02:48.547Z,56.00
2018-05-19T14:05:16.138Z,55.90
2018-05-19T14:07:43.437Z,55.50
2018-05-19T14:10:10.895Z,54.70
2018-05-19T14:12:38.358Z,54.90
2018-05-19T14:15:05.819Z,57.40
2018-05-19T14:17:33.266Z,57.50
2018-05-19T14:20:00.712Z,59.00
2018-05-19T14:22:28.916Z,56.90
2018-05-19T14:24:56.416Z,56.80
2018-05-19T14:27:23.945Z,54.10
2018-05-19T14:29:51.375Z,53.30
2018-05-19T14:32:19.583Z,53.70
2018-05-19T14:34:47.075Z,53.70
2018-05-19T14:37:14.509Z,53.20
2018-05-19T14:39:41.999Z,54.10
2018-05-19T14:42:09.450Z,54.10
2018-05-19T14:44:36.903Z,54.90
2018-05-19T14:47:04.381Z,53.20
2018-05-19T14:49:31.823Z,54.50
2018-05-19T14:51:59.306Z,55.30
2018-05-19T14:54:26.779Z,55.30
2018-05-19T14:56:54.239Z,56.30
2018-05-19T14:59:21.683Z,56.70
2018-05-19T15:01:49.142Z,57.30
2018-05-19T15:04:16.607Z,58.90
2018-05-19T15:06:44.145Z,58.30
2018-05-19T15:09:11.582Z,59.10
2018-05-19T15:11:39.791Z,61.80
2018-05-19T15:14:07.230Z,61.70
2018-05-19T15:16:34.679Z,62.00
2018-05-19T15:19:02.943Z,63.30
2018-05-19T15:21:30.343Z,63.20
2018-05-19T15:23:57.783Z,61.90
2018-05-19T15:26:26.020Z,62.10
2018-05-19T15:28:53.462Z,62.00
2018-05-19T15:31:20.939Z,60.00
2018-05-19T15:33:48.374Z,59.70
2018-05-19T15:36:15.865Z,61.00
2018-05-19T15:38:43.335Z,61.70
2018-05-19T15:41:10.783Z,61.00
2018-05-19T15:43:38.317Z,60.60
2018-05-19T15:46:05.791Z,59.10
2018-05-19T15:48:33.246Z,62.60
2018-05-19T15:51:00.703Z,60.70
2018-05-19T15:53:28.152Z,59.80
2018-05-19T15:55:56.370Z,60.00
2018-05-19T15:58:23.801Z,60.00
2018-05-19T16:00:51.253Z,61.70
2018-05-19T16:03:18.691Z,60.40
2018-05-19T16:05:46.916Z,62.20
2018-05-19T16:08:14.364Z,62.10
2018-05-19T16:10:41.818Z,64.20
2018-05-19T16:13:09.266Z,65.10
2018-05-19T16:15:37.469Z,64.00
2018-05-19T16:18:04.962Z,64.00
2018-05-19T16:20:32.421Z,65.30
2018-05-19T16:22:59.960Z,63.80
2018-05-19T16:25:27.397Z,65.50
2018-05-19T16:27:55.848Z,66.60
2018-05-19T16:30:24.046Z,66.50
2018-05-19T16:32:52.258Z,67.00
2018-05-19T16:35:19.704Z,67.00
2018-05-19T16:37:47.161Z,65.20
2018-05-19T16:40:14.624Z,64.60
2018-05-19T16:42:42.831Z,63.90
2018-05-19T16:45:10.276Z,63.90
2018-05-19T16:47:37.767Z,63.10
2018-05-19T16:50:05.231Z,63.80
2018-05-19T16:52:32.700Z,64.60
2018-05-19T16:55:00.136Z,64.00
2018-05-19T16:57:27.595Z,65.40
2018-05-19T16:59:55.137Z,64.70
2018-05-19T17:02:22.530Z,65.50
2018-05-19T17:04:50.074Z,66.20
2018-05-19T17:07:17.572Z,64.90
2018-05-19T17:09:52.773Z,65.00
2018-05-19T17:12:21.367Z,65.00
2018-05-19T17:14:58.405Z,64.60
2018-05-19T17:17:26.655Z,63.50
2018-05-19T17:19:54.103Z,65.80
2018-05-19T17:22:21.569Z,65.00
2018-05-19T17:24:50.990Z,64.80
2018-05-19T17:27:18.434Z,65.40
2018-05-19T17:29:46.110Z,65.60
2018-05-19T17:32:14.463Z,64.60
2018-05-19T17:34:41.975Z,64.40
2018-05-19T17:37:09.502Z,65.60
2018-05-19T17:39:42.262Z,66.60
2018-05-19T17:42:10.514Z,65.80
2018-05-19T17:44:41.531Z,68.20
2018-05-19T17:47:08.985Z,68.20
2018-05-19T17:49:36.441Z,68.90
2018-05-19T17:52:10.116Z,69.80
2018-05-19T17:54:38.709Z,69.40
2018-05-19T17:57:06.205Z,69.30
2018-05-19T17:59:35.987Z,71.50
2018-05-19T18:02:03.540Z,70.50
2018-05-19T18:04:34.787Z,70.00
2018-05-19T18:07:07.360Z,70.10
2018-05-19T18:09:39.195Z,70.50
2018-05-19T18:12:13.796Z,71.80
2018-05-19T18:14:45.383Z,70.20
2018-05-19T18:17:19.546Z,71.10
2018-05-19T18:19:54.469Z,71.10
2018-05-19T18:22:33.072Z,72.30
2018-05-19T18:25:05.400Z,72.50
2018-05-19T18:27:33.347Z,72.60
2018-05-19T18:30:00.799Z,73.50
2018-05-19T18:32:28.258Z,72.30
2018-05-19T18:34:55.710Z,73.70
2018-05-19T18:37:23.186Z,74.10
2018-05-19T18:39:50.670Z,74.20
2018-05-19T18:42:18.219Z,74.20
2018-05-19T18:44:45.725Z,75.90
2018-05-19T18:47:13.134Z,75.60
2018-05-19T18:49:40.627Z,76.00
2018-05-19T18:52:08.162Z,76.70
2018-05-19T18:54:35.619Z,77.40
2018-05-19T18:57:03.098Z,77.90
2018-05-19T18:59:30.649Z,78.00
2018-05-19T19:01:58.131Z,78.20
2018-05-19T19:04:25.583Z,78.50
2018-05-19T19:06:53.038Z,78.10
2018-05-19T19:09:20.503Z,78.50
2018-05-19T19:11:47.946Z,79.80
2018-05-19T19:14:15.399Z,79.80
2018-05-19T19:16:42.842Z,80.10
2018-05-19T19:19:10.347Z,80.70
2018-05-19T19:21:37.795Z,81.30
2018-05-19T19:24:05.243Z,81.30
2018-05-19T19:26:32.703Z,81.50
2018-05-19T19:29:00.264Z,82.60
2018-05-19T19:31:27.827Z,83.50
2018-05-19T19:33:55.272Z,83.90
2018-05-19T19:36:22.735Z,83.70
2018-05-19T19:38:50.309Z,83.30
2018-05-19T19:41:17.746Z,83.90
2018-05-19T19:43:45.978Z,84.80
2018-05-19T19:46:13.509Z,84.80
2018-05-19T19:48:40.914Z,84.90
2018-05-19T19:51:08.438Z,85.00
2018-05-19T19:53:35.870Z,85.10
2018-05-19T19:56:04.102Z,85.70
2018-05-19T19:58:31.566Z,85.70
2018-05-19T20:00:59.029Z,85.90
2018-05-19T20:03:26.536Z,86.20
2018-05-19T20:05:54.742Z,86.60
2018-05-19T20:08:22.233Z,86.60
2018-05-19T20:10:49.692Z,86.90
2018-05-19T20:13:17.250Z,87.30
2018-05-19T20:15:44.695Z,86.90
2018-05-19T20:18:12.186Z,87.00
2018-05-19T20:20:39.646Z,87.50
2018-05-19T20:23:07.310Z,87.70
2018-05-19T20:25:34.761Z,87.60
2018-05-19T20:28:02.218Z,87.60
2018-05-19T20:30:29.674Z,87.80
2018-05-19T20:32:57.139Z,88.30
2018-05-19T20:35:24.594Z,88.10
2018-05-19T20:37:52.083Z,88.30
2018-05-19T20:40:19.555Z,88.50
2018-05-19T20:42:47.119Z,88.80
2018-05-19T20:45:15.335Z,88.90
2018-05-19T20:47:42.834Z,88.90
2018-05-19T20:50:10.312Z,89.20
2018-05-19T20:52:37.762Z,89.60
2018-05-19T20:55:05.211Z,89.90
2018-05-19T20:57:32.658Z,89.70
2018-05-19T21:00:00.180Z,90.20
2018-05-19T21:02:27.602Z,90.70
2018-05-19T21:04:55.056Z,90.80
2018-05-19T21:07:22.553Z,91.00
2018-05-19T21:09:50.168Z,90.60
2018-05-19T21:12:17.666Z,90.40
2018-05-19T21:14:45.114Z,90.40
2018-05-19T21:17:12.553Z,90.70
2018-05-19T21:19:40.015Z,90.70
2018-05-19T21:22:07.463Z,90.90
2018-05-19T21:24:34.934Z,90.80
2018-05-19T21:27:02.383Z,90.90
2018-05-19T21:29:29.910Z,91.00
2018-05-19T21:31:57.331Z,91.00
2018-05-19T21:34:24.818Z,91.30
2018-05-19T21:36:52.346Z,91.30
2018-05-19T21:39:19.790Z,91.30
2018-05-19T21:41:47.229Z,91.20
2018-05-19T21:44:15.479Z,91.00
2018-05-19T21:46:42.927Z,91.00
2018-05-19T21:49:10.390Z,91.10
2018-05-19T21:51:37.836Z,91.00
2018-05-19T21:54:05.300Z,91.20
2018-05-19T21:56:32.755Z,91.70
2018-05-19T21:59:00.215Z,91.80
2018-05-19T22:01:27.779Z,91.90
2018-05-19T22:03:55.215Z,92.20
2018-05-19T22:06:23.435Z,92.20
2018-05-19T22:08:50.913Z,92.20
2018-05-19T22:11:18.376Z,92.30
2018-05-19T22:13:45.838Z,92.50
2018-05-19T22:16:13.286Z,92.50
2018-05-19T22:18:40.730Z,92.60
2018-05-19T22:21:08.191Z,93.10
2018-05-19T22:23:35.626Z,93.50
2018-05-19T22:26:03.850Z,93.80
2018-05-19T22:28:31.295Z,93.80
2018-05-19T22:30:58.779Z,93.60
2018-05-19T22:33:26.214Z,93.80
2018-05-19T22:35:53.700Z,94.20
2018-05-19T22:38:21.163Z,94.10
2018-05-19T22:40:48.614Z,94.20
2018-05-19T22:43:16.065Z,94.30
2018-05-19T22:45:43.520Z,94.90
2018-05-19T22:48:11.006Z,94.90
2018-05-19T22:50:38.458Z,95.00
2018-05-19T22:53:05.903Z,95.10
2018-05-19T22:55:33.373Z,95.20
2018-05-19T22:58:00.851Z,95.50
2018-05-19T23:00:28.293Z,95.90
2018-05-19T23:02:55.750Z,96.00
2018-05-19T23:05:23.207Z,96.20
2018-05-19T23:07:50.699Z,96.50
2018-05-19T23:10:18.155Z,96.70
2018-05-19T23:12:45.626Z,96.80
2018-05-19T23:15:13.187Z,97.20
2018-05-19T23:17:40.622Z,97.10
2018-05-19T23:20:08.074Z,97.20
2018-05-19T23:22:43.315Z,97.70
2018-05-19T23:25:10.766Z,97.90
2018-05-19T23:27:38.221Z,97.80
2018-05-19T23:30:06.461Z,98.50
2018-05-19T23:32:33.916Z,98.50
2018-05-19T23:35:01.381Z,98.60
2018-05-19T23:37:28.830Z,98.80
2018-05-19T23:39:56.265Z,98.90
2018-05-19T23:42:23.759Z,99.00
2018-05-19T23:44:51.205Z,99.10
2018-05-19T23:47:18.677Z,99.10
2018-05-19T23:49:46.123Z,99.40
2018-05-19T23:52:13.615Z,99.70
2018-05-19T23:54:41.067Z,99.80
2018-05-19T23:57:08.528Z,99.90
2018-05-19T23:59:35.970Z,99.90
